sensor_id;sensor_type;location;lat;lon;timestamp;P1;durP1;ratioP1;P2;durP2;ratioP2
4754;SDS011;2391;47.212;7.542;2023-06-22T00:00:32;9.23;;;3.77;;
4754;SDS011;2391;47.212;7.542;2023-06-22T00:02:58;11.47;;;4.40;;
4754;SDS011;2391;47.212;7.542;2023-06-22T00:05:24;7.53;;;3.90;;
4754;SDS011;2391;47.212;7.542;2023-06-22T00:07:49;9.53;;;4.00;;
4754;SDS011;2391;47.212;7.542;2023-06-22T00:10:15;11.13;;;3.23;;
4754;SDS011;2391;47.212;7.542;2023-06-22T00:12:41;6.17;;;3.87;;
4754;SDS011;2391;47.212;7.542;2023-06-22T00:15:07;12.00;;;4.27;;
4754;SDS011;2391;47.212;7.542;2023-06-22T00:17:33;3.40;;;3.10;;
4754;SDS011;2391;47.212;7.542;2023-06-22T00:19:58;9.40;;;3.10;;
4754;SDS011;2391;47.212;7.542;2023-06-22T00:22:25;7.70;;;3.27;;
4754;SDS011;2391;47.212;7.542;2023-06-22T00:24:54;9.97;;;3.50;;
4754;SDS011;2391;47.212;7.542;2023-06-22T00:27:20;10.40;;;3.53;;
4754;SDS011;2391;47.212;7.542;2023-06-22T00:29:46;8.13;;;3.50;;
4754;SDS011;2391;47.212;7.542;2023-06-22T00:32:12;6.50;;;3.20;;
4754;SDS011;2391;47.212;7.542;2023-06-22T00:34:38;7.87;;;3.40;;
4754;SDS011;2391;47.212;7.542;2023-06-22T00:37:04;12.80;;;4.23;;
4754;SDS011;2391;47.212;7.542;2023-06-22T00:39:29;9.27;;;3.40;;
4754;SDS011;2391;47.212;7.542;2023-06-22T00:41:57;9.03;;;3.30;;
4754;SDS011;2391;47.212;7.542;2023-06-22T00:44:25;10.10;;;3.67;;
4754;SDS011;2391;47.212;7.542;2023-06-22T00:46:51;4.77;;;3.10;;
4754;SDS011;2391;47.212;7.542;2023-06-22T00:49:17;7.20;;;3.77;;
4754;SDS011;2391;47.212;7.542;2023-06-22T00:51:43;12.67;;;3.37;;
4754;SDS011;2391;47.212;7.542;2023-06-22T00:54:11;8.00;;;3.37;;
4754;SDS011;2391;47.212;7.542;2023-06-22T00:56:40;7.70;;;3.50;;
4754;SDS011;2391;47.212;7.542;2023-06-22T00:59:07;9.70;;;3.57;;
4754;SDS011;2391;47.212;7.542;2023-06-22T01:01:35;12.10;;;3.30;;
4754;SDS011;2391;47.212;7.542;2023-06-22T01:04:03;5.40;;;3.30;;
4754;SDS011;2391;47.212;7.542;2023-06-22T01:06:31;5.87;;;3.50;;
4754;SDS011;2391;47.212;7.542;2023-06-22T01:09:01;10.40;;;3.40;;
4754;SDS011;2391;47.212;7.542;2023-06-22T01:11:36;7.87;;;3.30;;
4754;SDS011;2391;47.212;7.542;2023-06-22T01:14:10;7.17;;;3.33;;
4754;SDS011;2391;47.212;7.542;2023-06-22T01:16:42;9.70;;;2.93;;
4754;SDS011;2391;47.212;7.542;2023-06-22T01:21:46;10.13;;;3.20;;
4754;SDS011;2391;47.212;7.542;2023-06-22T01:27:05;5.90;;;3.20;;
4754;SDS011;2391;47.212;7.542;2023-06-22T01:29:32;10.53;;;3.50;;
4754;SDS011;2391;47.212;7.542;2023-06-22T01:32:00;8.37;;;2.97;;
4754;SDS011;2391;47.212;7.542;2023-06-22T01:34:29;7.77;;;3.63;;
4754;SDS011;2391;47.212;7.542;2023-06-22T01:36:57;11.53;;;3.70;;
4754;SDS011;2391;47.212;7.542;2023-06-22T01:39:25;7.13;;;3.10;;
4754;SDS011;2391;47.212;7.542;2023-06-22T01:41:51;7.50;;;3.43;;
4754;SDS011;2391;47.212;7.542;2023-06-22T01:44:20;6.77;;;3.80;;
4754;SDS011;2391;47.212;7.542;2023-06-22T01:46:47;6.40;;;3.17;;
4754;SDS011;2391;47.212;7.542;2023-06-22T01:49:14;9.50;;;3.70;;
4754;SDS011;2391;47.212;7.542;2023-06-22T01:51:40;9.83;;;3.33;;
4754;SDS011;2391;47.212;7.542;2023-06-22T01:54:06;7.50;;;3.63;;
4754;SDS011;2391;47.212;7.542;2023-06-22T01:56:33;6.30;;;3.10;;
4754;SDS011;2391;47.212;7.542;2023-06-22T02:01:33;3.30;;;3.00;;
4754;SDS011;2391;47.212;7.542;2023-06-22T02:04:06;11.20;;;3.30;;
4754;SDS011;2391;47.212;7.542;2023-06-22T02:06:34;10.33;;;4.27;;
4754;SDS011;2391;47.212;7.542;2023-06-22T02:09:06;4.70;;;2.87;;
4754;SDS011;2391;47.212;7.542;2023-06-22T02:11:36;5.20;;;3.70;;
4754;SDS011;2391;47.212;7.542;2023-06-22T02:14:02;6.40;;;3.23;;
4754;SDS011;2391;47.212;7.542;2023-06-22T02:16:31;8.67;;;3.60;;
4754;SDS011;2391;47.212;7.542;2023-06-22T02:18:57;7.73;;;3.57;;
4754;SDS011;2391;47.212;7.542;2023-06-22T02:21:28;9.13;;;4.40;;
4754;SDS011;2391;47.212;7.542;2023-06-22T02:23:55;7.30;;;4.33;;
4754;SDS011;2391;47.212;7.542;2023-06-22T02:26:21;5.43;;;3.67;;
4754;SDS011;2391;47.212;7.542;2023-06-22T02:28:49;9.53;;;3.93;;
4754;SDS011;2391;47.212;7.542;2023-06-22T02:31:14;7.67;;;4.00;;
4754;SDS011;2391;47.212;7.542;2023-06-22T02:33:41;10.03;;;5.50;;
4754;SDS011;2391;47.212;7.542;2023-06-22T02:36:07;10.50;;;3.57;;
4754;SDS011;2391;47.212;7.542;2023-06-22T02:38:34;4.40;;;3.60;;
4754;SDS011;2391;47.212;7.542;2023-06-22T02:41:02;13.90;;;4.63;;
4754;SDS011;2391;47.212;7.542;2023-06-22T02:43:28;6.20;;;4.20;;
4754;SDS011;2391;47.212;7.542;2023-06-22T02:45:54;9.23;;;4.00;;
4754;SDS011;2391;47.212;7.542;2023-06-22T02:48:20;10.57;;;4.70;;
4754;SDS011;2391;47.212;7.542;2023-06-22T02:50:46;9.47;;;4.60;;
4754;SDS011;2391;47.212;7.542;2023-06-22T02:53:12;9.30;;;4.43;;
4754;SDS011;2391;47.212;7.542;2023-06-22T02:55:38;10.70;;;4.20;;
4754;SDS011;2391;47.212;7.542;2023-06-22T02:58:05;9.00;;;4.97;;
4754;SDS011;2391;47.212;7.542;2023-06-22T03:00:32;13.53;;;5.33;;
4754;SDS011;2391;47.212;7.542;2023-06-22T03:02:57;9.43;;;3.57;;
4754;SDS011;2391;47.212;7.542;2023-06-22T03:05:23;12.23;;;5.13;;
4754;SDS011;2391;47.212;7.542;2023-06-22T03:07:49;9.67;;;4.50;;
4754;SDS011;2391;47.212;7.542;2023-06-22T03:10:16;11.63;;;4.20;;
4754;SDS011;2391;47.212;7.542;2023-06-22T03:12:42;11.40;;;4.43;;
4754;SDS011;2391;47.212;7.542;2023-06-22T03:15:09;7.50;;;4.50;;
4754;SDS011;2391;47.212;7.542;2023-06-22T03:17:36;7.00;;;4.27;;
4754;SDS011;2391;47.212;7.542;2023-06-22T03:20:05;9.60;;;4.47;;
4754;SDS011;2391;47.212;7.542;2023-06-22T03:22:33;15.30;;;4.30;;
4754;SDS011;2391;47.212;7.542;2023-06-22T03:24:59;7.70;;;4.60;;
4754;SDS011;2391;47.212;7.542;2023-06-22T03:27:25;13.27;;;4.30;;
4754;SDS011;2391;47.212;7.542;2023-06-22T03:29:50;8.93;;;4.50;;
4754;SDS011;2391;47.212;7.542;2023-06-22T03:32:16;8.77;;;3.67;;
4754;SDS011;2391;47.212;7.542;2023-06-22T03:34:42;12.77;;;4.33;;
4754;SDS011;2391;47.212;7.542;2023-06-22T03:37:10;7.53;;;4.50;;
4754;SDS011;2391;47.212;7.542;2023-06-22T03:39:37;9.93;;;5.00;;
4754;SDS011;2391;47.212;7.542;2023-06-22T03:42:03;8.97;;;4.30;;
4754;SDS011;2391;47.212;7.542;2023-06-22T03:44:29;8.13;;;4.87;;
4754;SDS011;2391;47.212;7.542;2023-06-22T03:46:55;6.00;;;4.27;;
4754;SDS011;2391;47.212;7.542;2023-06-22T03:49:21;6.47;;;4.67;;
4754;SDS011;2391;47.212;7.542;2023-06-22T03:51:46;9.47;;;4.60;;
4754;SDS011;2391;47.212;7.542;2023-06-22T03:54:12;12.30;;;4.80;;
4754;SDS011;2391;47.212;7.542;2023-06-22T03:56:38;7.93;;;5.37;;
4754;SDS011;2391;47.212;7.542;2023-06-22T03:59:03;8.47;;;5.07;;
4754;SDS011;2391;47.212;7.542;2023-06-22T04:01:30;9.53;;;4.30;;
4754;SDS011;2391;47.212;7.542;2023-06-22T04:03:56;7.50;;;4.10;;
4754;SDS011;2391;47.212;7.542;2023-06-22T04:06:22;5.30;;;4.10;;
4754;SDS011;2391;47.212;7.542;2023-06-22T04:08:48;14.20;;;4.70;;
4754;SDS011;2391;47.212;7.542;2023-06-22T04:11:16;9.93;;;5.93;;
4754;SDS011;2391;47.212;7.542;2023-06-22T04:13:43;8.37;;;4.97;;
4754;SDS011;2391;47.212;7.542;2023-06-22T04:16:09;9.63;;;4.50;;
4754;SDS011;2391;47.212;7.542;2023-06-22T04:18:35;5.73;;;4.47;;
4754;SDS011;2391;47.212;7.542;2023-06-22T04:21:01;10.40;;;5.57;;
4754;SDS011;2391;47.212;7.542;2023-06-22T04:23:28;7.00;;;5.30;;
4754;SDS011;2391;47.212;7.542;2023-06-22T04:25:53;8.03;;;5.13;;
4754;SDS011;2391;47.212;7.542;2023-06-22T04:28:21;7.50;;;4.87;;
4754;SDS011;2391;47.212;7.542;2023-06-22T04:30:47;14.23;;;5.47;;
4754;SDS011;2391;47.212;7.542;2023-06-22T04:33:14;7.90;;;4.90;;
4754;SDS011;2391;47.212;7.542;2023-06-22T04:35:40;7.73;;;4.73;;
4754;SDS011;2391;47.212;7.542;2023-06-22T04:38:07;7.90;;;4.73;;
4754;SDS011;2391;47.212;7.542;2023-06-22T04:40:33;9.30;;;4.90;;
4754;SDS011;2391;47.212;7.542;2023-06-22T04:42:59;5.50;;;4.40;;
4754;SDS011;2391;47.212;7.542;2023-06-22T04:45:26;6.00;;;4.40;;
4754;SDS011;2391;47.212;7.542;2023-06-22T04:47:52;7.90;;;4.63;;
4754;SDS011;2391;47.212;7.542;2023-06-22T04:50:18;14.63;;;5.60;;
4754;SDS011;2391;47.212;7.542;2023-06-22T04:52:46;14.33;;;6.80;;
4754;SDS011;2391;47.212;7.542;2023-06-22T04:55:13;7.27;;;5.40;;
4754;SDS011;2391;47.212;7.542;2023-06-22T04:57:41;6.30;;;5.07;;
4754;SDS011;2391;47.212;7.542;2023-06-22T05:00:09;11.70;;;5.47;;
4754;SDS011;2391;47.212;7.542;2023-06-22T05:02:41;10.77;;;5.70;;
4754;SDS011;2391;47.212;7.542;2023-06-22T05:05:07;10.50;;;6.50;;
4754;SDS011;2391;47.212;7.542;2023-06-22T05:07:34;11.80;;;7.50;;
4754;SDS011;2391;47.212;7.542;2023-06-22T05:10:04;9.80;;;6.90;;
4754;SDS011;2391;47.212;7.542;2023-06-22T05:12:29;10.40;;;5.93;;
4754;SDS011;2391;47.212;7.542;2023-06-22T05:14:55;11.27;;;5.90;;
4754;SDS011;2391;47.212;7.542;2023-06-22T05:17:21;15.87;;;7.07;;
4754;SDS011;2391;47.212;7.542;2023-06-22T05:19:48;15.43;;;6.57;;
4754;SDS011;2391;47.212;7.542;2023-06-22T05:22:16;12.80;;;6.30;;
4754;SDS011;2391;47.212;7.542;2023-06-22T05:24:42;7.90;;;5.73;;
4754;SDS011;2391;47.212;7.542;2023-06-22T05:27:09;9.37;;;7.20;;
4754;SDS011;2391;47.212;7.542;2023-06-22T05:29:36;8.63;;;5.70;;
4754;SDS011;2391;47.212;7.542;2023-06-22T05:32:02;12.03;;;6.10;;
4754;SDS011;2391;47.212;7.542;2023-06-22T05:34:28;16.07;;;6.30;;
4754;SDS011;2391;47.212;7.542;2023-06-22T05:36:54;10.97;;;5.87;;
4754;SDS011;2391;47.212;7.542;2023-06-22T05:39:20;16.60;;;6.30;;
4754;SDS011;2391;47.212;7.542;2023-06-22T05:41:46;15.17;;;6.03;;
4754;SDS011;2391;47.212;7.542;2023-06-22T05:44:12;11.83;;;5.60;;
4754;SDS011;2391;47.212;7.542;2023-06-22T05:46:41;13.10;;;5.73;;
4754;SDS011;2391;47.212;7.542;2023-06-22T05:49:15;15.53;;;6.23;;
4754;SDS011;2391;47.212;7.542;2023-06-22T05:51:41;12.47;;;5.60;;
4754;SDS011;2391;47.212;7.542;2023-06-22T05:54:07;14.10;;;5.77;;
4754;SDS011;2391;47.212;7.542;2023-06-22T05:56:34;10.00;;;5.43;;
4754;SDS011;2391;47.212;7.542;2023-06-22T05:59:00;11.90;;;6.07;;
4754;SDS011;2391;47.212;7.542;2023-06-22T06:01:26;14.23;;;6.30;;
4754;SDS011;2391;47.212;7.542;2023-06-22T06:03:52;7.37;;;5.07;;
4754;SDS011;2391;47.212;7.542;2023-06-22T06:06:18;7.53;;;4.60;;
4754;SDS011;2391;47.212;7.542;2023-06-22T06:08:49;11.30;;;6.00;;
4754;SDS011;2391;47.212;7.542;2023-06-22T06:11:15;15.23;;;6.53;;
4754;SDS011;2391;47.212;7.542;2023-06-22T06:13:40;11.70;;;7.10;;
4754;SDS011;2391;47.212;7.542;2023-06-22T06:16:06;15.87;;;8.10;;
4754;SDS011;2391;47.212;7.542;2023-06-22T06:18:32;11.37;;;7.63;;
4754;SDS011;2391;47.212;7.542;2023-06-22T06:20:58;14.70;;;8.70;;
4754;SDS011;2391;47.212;7.542;2023-06-22T06:23:23;14.47;;;7.43;;
4754;SDS011;2391;47.212;7.542;2023-06-22T06:25:49;11.80;;;8.33;;
4754;SDS011;2391;47.212;7.542;2023-06-22T06:28:15;19.53;;;9.47;;
4754;SDS011;2391;47.212;7.542;2023-06-22T06:30:42;25.03;;;9.53;;
4754;SDS011;2391;47.212;7.542;2023-06-22T06:33:08;20.60;;;8.70;;
4754;SDS011;2391;47.212;7.542;2023-06-22T06:35:34;18.00;;;8.77;;
4754;SDS011;2391;47.212;7.542;2023-06-22T06:38:00;16.20;;;8.53;;
4754;SDS011;2391;47.212;7.542;2023-06-22T06:40:26;14.27;;;8.60;;
4754;SDS011;2391;47.212;7.542;2023-06-22T06:42:51;17.00;;;8.27;;
4754;SDS011;2391;47.212;7.542;2023-06-22T06:45:18;24.10;;;9.30;;
4754;SDS011;2391;47.212;7.542;2023-06-22T06:47:48;20.07;;;8.80;;
4754;SDS011;2391;47.212;7.542;2023-06-22T06:50:14;16.93;;;9.30;;
4754;SDS011;2391;47.212;7.542;2023-06-22T06:52:41;18.83;;;8.87;;
4754;SDS011;2391;47.212;7.542;2023-06-22T06:55:08;16.43;;;9.17;;
4754;SDS011;2391;47.212;7.542;2023-06-22T06:57:36;11.93;;;8.33;;
4754;SDS011;2391;47.212;7.542;2023-06-22T07:00:03;18.50;;;8.90;;
4754;SDS011;2391;47.212;7.542;2023-06-22T07:02:32;17.20;;;9.80;;
4754;SDS011;2391;47.212;7.542;2023-06-22T07:04:58;23.53;;;9.30;;
4754;SDS011;2391;47.212;7.542;2023-06-22T07:07:24;11.40;;;7.77;;
4754;SDS011;2391;47.212;7.542;2023-06-22T07:09:50;19.53;;;8.27;;
4754;SDS011;2391;47.212;7.542;2023-06-22T07:12:15;10.87;;;7.63;;
4754;SDS011;2391;47.212;7.542;2023-06-22T07:14:41;12.63;;;8.00;;
4754;SDS011;2391;47.212;7.542;2023-06-22T07:17:07;20.47;;;7.77;;
4754;SDS011;2391;47.212;7.542;2023-06-22T07:19:33;15.13;;;8.30;;
4754;SDS011;2391;47.212;7.542;2023-06-22T07:21:59;16.13;;;7.87;;
4754;SDS011;2391;47.212;7.542;2023-06-22T07:24:24;13.03;;;8.07;;
4754;SDS011;2391;47.212;7.542;2023-06-22T07:26:50;11.03;;;7.50;;
4754;SDS011;2391;47.212;7.542;2023-06-22T07:29:17;10.70;;;7.30;;
4754;SDS011;2391;47.212;7.542;2023-06-22T07:31:44;14.80;;;7.23;;
4754;SDS011;2391;47.212;7.542;2023-06-22T07:34:10;15.27;;;7.53;;
4754;SDS011;2391;47.212;7.542;2023-06-22T07:36:37;12.50;;;7.30;;
4754;SDS011;2391;47.212;7.542;2023-06-22T07:39:03;16.93;;;7.30;;
4754;SDS011;2391;47.212;7.542;2023-06-22T07:41:29;20.93;;;8.50;;
4754;SDS011;2391;47.212;7.542;2023-06-22T07:43:56;18.93;;;7.37;;
4754;SDS011;2391;47.212;7.542;2023-06-22T07:46:22;16.97;;;7.53;;
4754;SDS011;2391;47.212;7.542;2023-06-22T07:48:48;13.97;;;7.83;;
4754;SDS011;2391;47.212;7.542;2023-06-22T07:51:13;14.73;;;7.23;;
4754;SDS011;2391;47.212;7.542;2023-06-22T07:53:40;14.90;;;6.47;;
4754;SDS011;2391;47.212;7.542;2023-06-22T07:56:09;14.53;;;7.40;;
4754;SDS011;2391;47.212;7.542;2023-06-22T07:58:36;17.30;;;7.50;;
4754;SDS011;2391;47.212;7.542;2023-06-22T08:01:02;11.00;;;6.80;;
4754;SDS011;2391;47.212;7.542;2023-06-22T08:03:28;10.57;;;6.60;;
4754;SDS011;2391;47.212;7.542;2023-06-22T08:05:54;16.73;;;7.40;;
4754;SDS011;2391;47.212;7.542;2023-06-22T08:08:20;16.17;;;7.10;;
4754;SDS011;2391;47.212;7.542;2023-06-22T08:10:46;13.50;;;7.23;;
4754;SDS011;2391;47.212;7.542;2023-06-22T08:13:12;12.23;;;7.47;;
4754;SDS011;2391;47.212;7.542;2023-06-22T08:15:38;16.20;;;6.93;;
4754;SDS011;2391;47.212;7.542;2023-06-22T08:18:04;9.67;;;6.47;;
4754;SDS011;2391;47.212;7.542;2023-06-22T08:20:30;9.90;;;6.90;;
4754;SDS011;2391;47.212;7.542;2023-06-22T08:22:56;11.67;;;6.73;;
4754;SDS011;2391;47.212;7.542;2023-06-22T08:25:23;11.13;;;6.30;;
4754;SDS011;2391;47.212;7.542;2023-06-22T08:27:49;15.17;;;7.10;;
4754;SDS011;2391;47.212;7.542;2023-06-22T08:30:15;21.30;;;7.87;;
4754;SDS011;2391;47.212;7.542;2023-06-22T08:32:43;19.03;;;7.90;;
4754;SDS011;2391;47.212;7.542;2023-06-22T08:35:09;14.40;;;7.57;;
4754;SDS011;2391;47.212;7.542;2023-06-22T08:37:35;16.77;;;7.93;;
4754;SDS011;2391;47.212;7.542;2023-06-22T08:40:03;16.20;;;7.93;;
4754;SDS011;2391;47.212;7.542;2023-06-22T08:42:31;10.80;;;7.10;;
4754;SDS011;2391;47.212;7.542;2023-06-22T08:44:57;21.10;;;8.23;;
4754;SDS011;2391;47.212;7.542;2023-06-22T08:47:24;16.53;;;8.23;;
4754;SDS011;2391;47.212;7.542;2023-06-22T08:49:50;14.67;;;8.70;;
4754;SDS011;2391;47.212;7.542;2023-06-22T08:52:16;16.40;;;7.77;;
4754;SDS011;2391;47.212;7.542;2023-06-22T08:54:45;17.87;;;8.20;;
4754;SDS011;2391;47.212;7.542;2023-06-22T08:57:11;16.97;;;9.07;;
4754;SDS011;2391;47.212;7.542;2023-06-22T08:59:37;13.13;;;7.40;;
4754;SDS011;2391;47.212;7.542;2023-06-22T09:02:03;21.87;;;9.10;;
4754;SDS011;2391;47.212;7.542;2023-06-22T09:04:29;18.33;;;7.50;;
4754;SDS011;2391;47.212;7.542;2023-06-22T09:06:57;17.30;;;8.77;;
4754;SDS011;2391;47.212;7.542;2023-06-22T09:09:23;15.70;;;8.77;;
4754;SDS011;2391;47.212;7.542;2023-06-22T09:11:48;14.23;;;7.97;;
4754;SDS011;2391;47.212;7.542;2023-06-22T09:14:14;27.10;;;8.13;;
4754;SDS011;2391;47.212;7.542;2023-06-22T09:16:40;18.23;;;7.97;;
4754;SDS011;2391;47.212;7.542;2023-06-22T09:19:06;19.73;;;9.20;;
4754;SDS011;2391;47.212;7.542;2023-06-22T09:21:31;13.50;;;8.57;;
4754;SDS011;2391;47.212;7.542;2023-06-22T09:23:57;11.23;;;7.40;;
4754;SDS011;2391;47.212;7.542;2023-06-22T09:26:23;18.00;;;8.80;;
4754;SDS011;2391;47.212;7.542;2023-06-22T09:28:49;11.43;;;7.90;;
4754;SDS011;2391;47.212;7.542;2023-06-22T09:31:15;21.47;;;8.83;;
4754;SDS011;2391;47.212;7.542;2023-06-22T09:33:42;17.50;;;8.17;;
4754;SDS011;2391;47.212;7.542;2023-06-22T09:36:09;18.43;;;7.70;;
4754;SDS011;2391;47.212;7.542;2023-06-22T09:38:36;18.57;;;8.30;;
4754;SDS011;2391;47.212;7.542;2023-06-22T09:41:05;21.33;;;8.33;;
4754;SDS011;2391;47.212;7.542;2023-06-22T09:43:31;13.43;;;7.53;;
4754;SDS011;2391;47.212;7.542;2023-06-22T09:45:59;14.53;;;7.10;;
4754;SDS011;2391;47.212;7.542;2023-06-22T09:48:26;11.07;;;6.57;;
4754;SDS011;2391;47.212;7.542;2023-06-22T09:50:52;15.77;;;7.60;;
4754;SDS011;2391;47.212;7.542;2023-06-22T09:53:18;21.33;;;7.30;;
4754;SDS011;2391;47.212;7.542;2023-06-22T09:55:47;17.03;;;7.10;;
4754;SDS011;2391;47.212;7.542;2023-06-22T09:58:13;14.97;;;6.57;;
4754;SDS011;2391;47.212;7.542;2023-06-22T10:00:38;16.07;;;7.17;;
4754;SDS011;2391;47.212;7.542;2023-06-22T10:03:04;17.13;;;7.80;;
4754;SDS011;2391;47.212;7.542;2023-06-22T10:05:30;13.40;;;8.03;;
4754;SDS011;2391;47.212;7.542;2023-06-22T10:07:57;18.53;;;8.53;;
4754;SDS011;2391;47.212;7.542;2023-06-22T10:10:23;16.60;;;7.20;;
4754;SDS011;2391;47.212;7.542;2023-06-22T10:12:55;17.43;;;8.23;;
4754;SDS011;2391;47.212;7.542;2023-06-22T10:15:23;19.60;;;7.90;;
4754;SDS011;2391;47.212;7.542;2023-06-22T10:17:49;15.80;;;7.20;;
4754;SDS011;2391;47.212;7.542;2023-06-22T10:20:15;14.27;;;6.57;;
4754;SDS011;2391;47.212;7.542;2023-06-22T10:22:43;14.03;;;7.87;;
4754;SDS011;2391;47.212;7.542;2023-06-22T10:25:10;11.50;;;6.80;;
4754;SDS011;2391;47.212;7.542;2023-06-22T10:27:38;13.47;;;6.10;;
4754;SDS011;2391;47.212;7.542;2023-06-22T10:30:07;21.27;;;6.80;;
4754;SDS011;2391;47.212;7.542;2023-06-22T10:32:34;13.53;;;6.50;;
4754;SDS011;2391;47.212;7.542;2023-06-22T10:35:01;18.83;;;9.90;;
4754;SDS011;2391;47.212;7.542;2023-06-22T10:37:27;20.20;;;8.60;;
4754;SDS011;2391;47.212;7.542;2023-06-22T10:39:53;17.40;;;8.20;;
4754;SDS011;2391;47.212;7.542;2023-06-22T10:42:19;15.10;;;8.97;;
4754;SDS011;2391;47.212;7.542;2023-06-22T10:44:44;22.60;;;9.57;;
4754;SDS011;2391;47.212;7.542;2023-06-22T10:47:10;18.73;;;11.27;;
4754;SDS011;2391;47.212;7.542;2023-06-22T10:49:37;19.80;;;10.80;;
4754;SDS011;2391;47.212;7.542;2023-06-22T10:52:05;21.43;;;8.87;;
4754;SDS011;2391;47.212;7.542;2023-06-22T10:54:34;17.43;;;8.73;;
4754;SDS011;2391;47.212;7.542;2023-06-22T10:57:02;19.63;;;8.27;;
4754;SDS011;2391;47.212;7.542;2023-06-22T10:59:28;21.47;;;9.27;;
4754;SDS011;2391;47.212;7.542;2023-06-22T11:01:55;18.03;;;8.03;;
4754;SDS011;2391;47.212;7.542;2023-06-22T11:04:21;14.23;;;7.60;;
4754;SDS011;2391;47.212;7.542;2023-06-22T11:06:48;14.30;;;7.80;;
4754;SDS011;2391;47.212;7.542;2023-06-22T11:09:15;13.00;;;7.73;;
4754;SDS011;2391;47.212;7.542;2023-06-22T11:11:48;13.53;;;8.00;;
4754;SDS011;2391;47.212;7.542;2023-06-22T11:14:15;15.70;;;7.60;;
4754;SDS011;2391;47.212;7.542;2023-06-22T11:16:41;12.80;;;7.33;;
4754;SDS011;2391;47.212;7.542;2023-06-22T11:19:07;17.00;;;8.10;;
4754;SDS011;2391;47.212;7.542;2023-06-22T11:21:33;17.00;;;8.10;;
4754;SDS011;2391;47.212;7.542;2023-06-22T11:23:59;21.03;;;7.80;;
4754;SDS011;2391;47.212;7.542;2023-06-22T11:26:26;17.97;;;7.60;;
4754;SDS011;2391;47.212;7.542;2023-06-22T11:28:55;13.20;;;7.50;;
4754;SDS011;2391;47.212;7.542;2023-06-22T11:31:20;15.80;;;7.60;;
4754;SDS011;2391;47.212;7.542;2023-06-22T11:33:46;17.23;;;7.27;;
4754;SDS011;2391;47.212;7.542;2023-06-22T11:36:13;17.00;;;7.10;;
4754;SDS011;2391;47.212;7.542;2023-06-22T11:38:40;11.07;;;6.57;;
4754;SDS011;2391;47.212;7.542;2023-06-22T11:41:06;15.13;;;7.00;;
4754;SDS011;2391;47.212;7.542;2023-06-22T11:43:33;8.20;;;6.13;;
4754;SDS011;2391;47.212;7.542;2023-06-22T11:45:59;12.10;;;6.77;;
4754;SDS011;2391;47.212;7.542;2023-06-22T11:48:25;14.70;;;6.50;;
4754;SDS011;2391;47.212;7.542;2023-06-22T11:50:51;11.37;;;6.13;;
4754;SDS011;2391;47.212;7.542;2023-06-22T11:53:17;13.50;;;6.03;;
4754;SDS011;2391;47.212;7.542;2023-06-22T11:55:43;10.47;;;5.90;;
4754;SDS011;2391;47.212;7.542;2023-06-22T11:58:09;11.03;;;5.50;;
4754;SDS011;2391;47.212;7.542;2023-06-22T12:00:36;14.17;;;6.13;;
4754;SDS011;2391;47.212;7.542;2023-06-22T12:03:02;13.80;;;6.20;;
4754;SDS011;2391;47.212;7.542;2023-06-22T12:05:28;14.80;;;5.90;;
4754;SDS011;2391;47.212;7.542;2023-06-22T12:07:54;13.73;;;6.27;;
4754;SDS011;2391;47.212;7.542;2023-06-22T12:10:21;7.10;;;4.90;;
4754;SDS011;2391;47.212;7.542;2023-06-22T12:12:47;8.00;;;5.50;;
4754;SDS011;2391;47.212;7.542;2023-06-22T12:15:14;20.50;;;6.07;;
4754;SDS011;2391;47.212;7.542;2023-06-22T12:17:40;24.13;;;7.10;;
4754;SDS011;2391;47.212;7.542;2023-06-22T12:20:06;13.60;;;7.07;;
4754;SDS011;2391;47.212;7.542;2023-06-22T12:22:33;13.10;;;5.50;;
4754;SDS011;2391;47.212;7.542;2023-06-22T12:25:00;13.77;;;6.10;;
4754;SDS011;2391;47.212;7.542;2023-06-22T12:27:26;12.90;;;5.50;;
4754;SDS011;2391;47.212;7.542;2023-06-22T12:29:52;18.63;;;6.20;;
4754;SDS011;2391;47.212;7.542;2023-06-22T12:32:18;11.27;;;6.57;;
4754;SDS011;2391;47.212;7.542;2023-06-22T12:34:44;9.07;;;5.90;;
4754;SDS011;2391;47.212;7.542;2023-06-22T12:37:10;12.37;;;6.90;;
4754;SDS011;2391;47.212;7.542;2023-06-22T12:39:36;10.70;;;6.67;;
4754;SDS011;2391;47.212;7.542;2023-06-22T12:42:02;16.40;;;6.97;;
4754;SDS011;2391;47.212;7.542;2023-06-22T12:44:28;20.40;;;6.43;;
4754;SDS011;2391;47.212;7.542;2023-06-22T12:46:54;10.67;;;5.83;;
4754;SDS011;2391;47.212;7.542;2023-06-22T12:49:20;13.13;;;6.70;;
4754;SDS011;2391;47.212;7.542;2023-06-22T12:51:45;10.97;;;5.77;;
4754;SDS011;2391;47.212;7.542;2023-06-22T12:54:11;8.10;;;5.83;;
4754;SDS011;2391;47.212;7.542;2023-06-22T12:56:38;17.10;;;7.40;;
4754;SDS011;2391;47.212;7.542;2023-06-22T12:59:04;14.40;;;6.80;;
4754;SDS011;2391;47.212;7.542;2023-06-22T13:01:31;19.30;;;6.33;;
4754;SDS011;2391;47.212;7.542;2023-06-22T13:04:00;11.90;;;6.30;;
4754;SDS011;2391;47.212;7.542;2023-06-22T13:06:26;14.70;;;5.87;;
4754;SDS011;2391;47.212;7.542;2023-06-22T13:08:52;9.83;;;6.23;;
4754;SDS011;2391;47.212;7.542;2023-06-22T13:11:18;18.43;;;7.07;;
4754;SDS011;2391;47.212;7.542;2023-06-22T13:13:44;15.50;;;6.87;;
4754;SDS011;2391;47.212;7.542;2023-06-22T13:16:10;18.70;;;5.83;;
4754;SDS011;2391;47.212;7.542;2023-06-22T13:18:36;13.87;;;5.70;;
4754;SDS011;2391;47.212;7.542;2023-06-22T13:21:03;20.07;;;7.10;;
4754;SDS011;2391;47.212;7.542;2023-06-22T13:23:29;16.83;;;6.37;;
4754;SDS011;2391;47.212;7.542;2023-06-22T13:25:55;9.20;;;6.60;;
4754;SDS011;2391;47.212;7.542;2023-06-22T13:28:21;15.20;;;6.50;;
4754;SDS011;2391;47.212;7.542;2023-06-22T13:30:47;16.93;;;6.33;;
4754;SDS011;2391;47.212;7.542;2023-06-22T13:33:13;11.57;;;6.00;;
4754;SDS011;2391;47.212;7.542;2023-06-22T13:35:40;11.70;;;6.00;;
4754;SDS011;2391;47.212;7.542;2023-06-22T13:38:09;15.33;;;6.20;;
4754;SDS011;2391;47.212;7.542;2023-06-22T13:40:35;10.67;;;5.93;;
4754;SDS011;2391;47.212;7.542;2023-06-22T13:43:03;9.80;;;5.07;;
4754;SDS011;2391;47.212;7.542;2023-06-22T13:45:30;11.23;;;5.90;;
4754;SDS011;2391;47.212;7.542;2023-06-22T13:47:55;10.97;;;5.40;;
4754;SDS011;2391;47.212;7.542;2023-06-22T13:50:21;10.27;;;5.57;;
4754;SDS011;2391;47.212;7.542;2023-06-22T13:52:47;10.80;;;5.70;;
4754;SDS011;2391;47.212;7.542;2023-06-22T13:55:13;18.13;;;5.53;;
4754;SDS011;2391;47.212;7.542;2023-06-22T13:57:40;20.97;;;5.70;;
4754;SDS011;2391;47.212;7.542;2023-06-22T14:00:06;8.40;;;5.50;;
4754;SDS011;2391;47.212;7.542;2023-06-22T14:02:35;11.77;;;5.40;;
4754;SDS011;2391;47.212;7.542;2023-06-22T14:05:00;9.80;;;5.30;;
4754;SDS011;2391;47.212;7.542;2023-06-22T14:07:28;8.33;;;5.07;;
4754;SDS011;2391;47.212;7.542;2023-06-22T14:09:53;13.77;;;5.00;;
4754;SDS011;2391;47.212;7.542;2023-06-22T14:12:19;11.83;;;4.40;;
4754;SDS011;2391;47.212;7.542;2023-06-22T14:14:45;8.97;;;4.23;;
4754;SDS011;2391;47.212;7.542;2023-06-22T14:17:11;14.10;;;5.03;;
4754;SDS011;2391;47.212;7.542;2023-06-22T14:19:37;8.33;;;4.70;;
4754;SDS011;2391;47.212;7.542;2023-06-22T14:22:03;11.33;;;5.43;;
4754;SDS011;2391;47.212;7.542;2023-06-22T14:24:29;12.60;;;4.57;;
4754;SDS011;2391;47.212;7.542;2023-06-22T14:26:55;13.47;;;5.30;;
4754;SDS011;2391;47.212;7.542;2023-06-22T14:29:25;10.90;;;4.90;;
4754;SDS011;2391;47.212;7.542;2023-06-22T14:31:51;10.07;;;4.23;;
4754;SDS011;2391;47.212;7.542;2023-06-22T14:34:17;9.07;;;4.83;;
4754;SDS011;2391;47.212;7.542;2023-06-22T14:36:43;8.03;;;4.63;;
4754;SDS011;2391;47.212;7.542;2023-06-22T14:39:09;9.43;;;4.40;;
4754;SDS011;2391;47.212;7.542;2023-06-22T14:41:34;15.13;;;6.03;;
4754;SDS011;2391;47.212;7.542;2023-06-22T14:44:00;11.87;;;4.70;;
4754;SDS011;2391;47.212;7.542;2023-06-22T14:46:26;16.43;;;4.80;;
4754;SDS011;2391;47.212;7.542;2023-06-22T14:48:52;5.57;;;3.93;;
4754;SDS011;2391;47.212;7.542;2023-06-22T14:51:18;10.20;;;4.20;;
4754;SDS011;2391;47.212;7.542;2023-06-22T14:53:44;8.87;;;4.03;;
4754;SDS011;2391;47.212;7.542;2023-06-22T14:56:11;10.47;;;3.90;;
4754;SDS011;2391;47.212;7.542;2023-06-22T14:58:39;7.83;;;4.23;;
4754;SDS011;2391;47.212;7.542;2023-06-22T15:01:08;9.07;;;4.00;;
4754;SDS011;2391;47.212;7.542;2023-06-22T15:03:34;16.40;;;3.77;;
4754;SDS011;2391;47.212;7.542;2023-06-22T15:06:01;11.20;;;3.37;;
4754;SDS011;2391;47.212;7.542;2023-06-22T15:08:31;12.20;;;3.73;;